KVGT/VGT METAR and TAF weather

Enter ICAO airport designator
Station Type Date Time Source
KVGT METAR 2019/08/24 22:53 UTC NOAA

KVGT 242253Z AUTO 12017G21KT 10SM CLR 39/10 A2988 RMK AO2 SLP103 T03890100


Station Type Date Time Source
KVGT Decoded METAR 2019/08/24 22:53 UTC NOAA

Station name not available
Aug 24, 2019 - 06:53 PM EDT / 2019.08.24 2253 UTC
Wind: from the ESE (120 degrees) at 20 MPH (17 KT) gusting to 24 MPH (21 KT):0
Visibility: 10 mile(s):0
Sky conditions: clear
Temperature: 102.0 F (38.9 C)
Heat index: 98.8 F (37.1 C):1
Dew Point: 50.0 F (10.0 C)
Relative Humidity: 17%
Pressure (altimeter): 29.88 in. Hg (1011 hPa)
ob: KVGT 242253Z AUTO 12017G21KT 10SM CLR 39/10 A2988 RMK AO2 SLP103 T03890100
cycle: 23

Station Type Date Time Source
KVGT TAF 2019/08/24 18:36 UTC NOAA

TAF KVGT 241735Z 2418/2518 14008KT P6SM SKC
FM242300 19011KT P6SM FEW250
FM250900 VRB05KT P6SM FEW250

Example: see airport list